Time;durP1;ratioP1;P1;durP2;ratioP2;P2;SDS_P1;SDS_P2;PMS_P1;PMS_P2;Temp;Humidity;BMP_temperature;BMP_pressure;BME280_temperature;BME280_humidity;BME280_pressure;Samples;Min_cycle;Max_cycle;Signal;HPM_P1;HPM_P2
2021/12/22 00:02:24;;;;;;;0.98;0.98;;;;;;;;;;1835473;78;26289;-28
2021/12/22 00:04:54;;;;;;;0.80;0.80;;;;;;;;;;1839039;78;26336;-25
2021/12/22 00:07:21;;;;;;;1.55;0.80;;;;;;;;;;1836839;78;26325;-29
2021/12/22 00:09:49;;;;;;;0.80;0.80;;;;;;;;;;1839218;78;26267;-24
2021/12/22 00:12:16;;;;;;;0.82;0.82;;;;;;;;;;1839881;78;26376;-26
2021/12/22 00:14:43;;;;;;;0.98;0.80;;;;;;;;;;1839389;78;26403;-31
2021/12/22 00:17:11;;;;;;;1.47;0.90;;;;;;;;;;1840105;78;26301;-30
2021/12/22 00:19:38;;;;;;;1.02;0.80;;;;;;;;;;1831950;77;26298;-30
2021/12/22 00:22:05;;;;;;;0.70;0.70;;;;;;;;;;1824777;76;26324;-30
2021/12/22 00:24:34;;;;;;;0.80;0.80;;;;;;;;;;1831097;77;26367;-27
2021/12/22 00:27:02;;;;;;;0.80;0.80;;;;;;;;;;1836595;78;26772;-26
2021/12/22 00:29:30;;;;;;;0.80;0.80;;;;;;;;;;1818019;78;26997;-27
2021/12/22 00:32:18;;;;;;;0.60;0.60;;;;;;;;;;1839537;78;26272;-29
2021/12/22 00:34:27;;;;;;;0.70;0.70;;;;;;;;;;1831419;77;26791;-25
2021/12/22 00:36:55;;;;;;;0.90;0.90;;;;;;;;;;1835978;78;26771;-24
2021/12/22 00:39:22;;;;;;;0.70;0.70;;;;;;;;;;1831261;76;26846;-27
2021/12/22 00:41:50;;;;;;;0.90;0.90;;;;;;;;;;1822213;78;26298;-28
2021/12/22 00:44:17;;;;;;;0.80;0.80;;;;;;;;;;1840036;78;26934;-27
2021/12/22 00:46:45;;;;;;;0.70;0.70;;;;;;;;;;1838709;78;26317;-27
2021/12/22 00:49:12;;;;;;;1.12;0.88;;;;;;;;;;1839390;78;26276;-26
2021/12/22 00:51:39;;;;;;;0.80;0.80;;;;;;;;;;1839975;78;26298;-26
2021/12/22 00:54:06;;;;;;;0.80;0.80;;;;;;;;;;1824503;78;26412;-26
2021/12/22 00:56:37;;;;;;;0.85;0.70;;;;;;;;;;1820725;78;26305;-30
2021/12/22 00:59:03;;;;;;;0.70;0.70;;;;;;;;;;1839848;78;26239;-28
2021/12/22 01:01:30;;;;;;;0.75;0.75;;;;;;;;;;1838897;78;26368;-26
2021/12/22 01:03:58;;;;;;;0.70;0.70;;;;;;;;;;1839864;78;26721;-29
2021/12/22 01:06:25;;;;;;;0.80;0.80;;;;;;;;;;1839067;76;26301;-25
2021/12/22 01:08:52;;;;;;;0.80;0.80;;;;;;;;;;1823665;76;26363;-26
2021/12/22 01:11:20;;;;;;;0.80;0.80;;;;;;;;;;1829535;76;26275;-27
2021/12/22 01:13:47;;;;;;;0.78;0.78;;;;;;;;;;1838327;78;26305;-25
2021/12/22 01:16:14;;;;;;;0.70;0.70;;;;;;;;;;1837312;78;26784;-25
2021/12/22 01:18:42;;;;;;;0.60;0.60;;;;;;;;;;1831061;78;26354;-27
2021/12/22 01:21:23;;;;;;;0.70;0.70;;;;;;;;;;1828529;78;26367;-27
2021/12/22 01:24:01;;;;;;;0.80;0.80;;;;;;;;;;1821660;78;26303;-25
2021/12/22 01:26:19;;;;;;;0.80;0.80;;;;;;;;;;1823369;78;26406;-29
2021/12/22 01:28:46;;;;;;;0.78;0.78;;;;;;;;;;1825405;78;26768;-29
2021/12/22 01:31:16;;;;;;;0.70;0.70;;;;;;;;;;1826041;78;26755;-28
2021/12/22 01:33:43;;;;;;;0.95;0.70;;;;;;;;;;1822554;78;26363;-25
2021/12/22 01:36:10;;;;;;;0.90;0.90;;;;;;;;;;1831144;76;26310;-27
2021/12/22 01:38:38;;;;;;;0.70;0.70;;;;;;;;;;1839544;78;26372;-24
2021/12/22 01:41:05;;;;;;;0.75;0.75;;;;;;;;;;1839295;78;26745;-26
2021/12/22 01:43:32;;;;;;;0.70;0.70;;;;;;;;;;1820691;78;26918;-26
2021/12/22 01:51:36;;;;;;;0.70;0.70;;;;;;;;;;1810529;78;26440;-24
2021/12/22 01:54:05;;;;;;;0.70;0.70;;;;;;;;;;1816884;78;26381;-26
2021/12/22 01:56:34;;;;;;;0.70;0.70;;;;;;;;;;1835606;78;26333;-26
2021/12/22 01:59:03;;;;;;;0.50;0.50;;;;;;;;;;1829968;78;26307;-27
2021/12/22 02:01:36;;;;;;;0.70;0.70;;;;;;;;;;1827856;76;26406;-30
2021/12/22 02:04:02;;;;;;;0.80;0.80;;;;;;;;;;1835858;78;26376;-28
2021/12/22 02:06:29;;;;;;;0.60;0.60;;;;;;;;;;1827982;78;26293;-27
2021/12/22 02:08:58;;;;;;;0.70;0.70;;;;;;;;;;1833237;78;26233;-25
2021/12/22 02:11:26;;;;;;;0.70;0.70;;;;;;;;;;1822731;78;26375;-24
2021/12/22 02:13:59;;;;;;;0.80;0.80;;;;;;;;;;1840197;78;26262;-24
2021/12/22 02:16:31;;;;;;;0.70;0.70;;;;;;;;;;1839508;78;26771;-29
2021/12/22 02:18:54;;;;;;;0.70;0.70;;;;;;;;;;1838398;78;26370;-28
2021/12/22 02:21:24;;;;;;;0.60;0.60;;;;;;;;;;1840421;78;26345;-25
2021/12/22 02:23:52;;;;;;;0.80;0.80;;;;;;;;;;1840472;78;26378;-24
2021/12/22 02:26:31;;;;;;;0.72;0.72;;;;;;;;;;1840289;78;26318;-26
2021/12/22 02:28:57;;;;;;;0.70;0.70;;;;;;;;;;1836637;77;26313;-28
2021/12/22 02:31:19;;;;;;;0.70;0.70;;;;;;;;;;1823203;78;26461;-26
2021/12/22 02:33:50;;;;;;;0.80;0.80;;;;;;;;;;1840581;78;26324;-26
2021/12/22 02:38:47;;;;;;;0.70;0.70;;;;;;;;;;1840138;78;26997;-26
2021/12/22 02:41:16;;;;;;;0.65;0.65;;;;;;;;;;1840430;78;26386;-27
2021/12/22 02:43:51;;;;;;;0.60;0.60;;;;;;;;;;1839513;76;26270;-26
2021/12/22 02:46:14;;;;;;;0.70;0.70;;;;;;;;;;1836257;78;26325;-26
2021/12/22 02:48:42;;;;;;;0.70;0.70;;;;;;;;;;1839717;78;26369;-27
2021/12/22 02:51:10;;;;;;;0.65;0.65;;;;;;;;;;1840534;78;26267;-26
2021/12/22 02:53:45;;;;;;;0.95;0.80;;;;;;;;;;1840387;78;26243;-26
2021/12/22 02:56:29;;;;;;;1.00;0.72;;;;;;;;;;1835665;77;26417;-27
2021/12/22 02:58:45;;;;;;;0.68;0.68;;;;;;;;;;1818606;78;26738;-26
2021/12/22 03:06:37;;;;;;;0.65;0.65;;;;;;;;;;1830622;78;26365;-25
2021/12/22 03:09:03;;;;;;;0.65;0.65;;;;;;;;;;1827359;77;26334;-27
2021/12/22 03:11:33;;;;;;;0.65;0.65;;;;;;;;;;1818675;78;26322;-25
2021/12/22 03:13:59;;;;;;;0.65;0.65;;;;;;;;;;1830706;78;26398;-26
2021/12/22 03:16:27;;;;;;;0.80;0.80;;;;;;;;;;1830835;78;26288;-24
2021/12/22 03:18:54;;;;;;;0.80;0.80;;;;;;;;;;1829301;78;26286;-26
2021/12/22 03:21:22;;;;;;;0.57;0.57;;;;;;;;;;1816537;78;26403;-26
2021/12/22 03:23:52;;;;;;;0.75;0.75;;;;;;;;;;1824145;78;26279;-28
2021/12/22 03:26:22;;;;;;;0.62;0.62;;;;;;;;;;1826044;77;26427;-31
2021/12/22 03:28:49;;;;;;;0.60;0.60;;;;;;;;;;1820579;78;26781;-26
2021/12/22 03:31:17;;;;;;;0.70;0.70;;;;;;;;;;1809769;79;26371;-27
2021/12/22 03:33:45;;;;;;;0.80;0.80;;;;;;;;;;1810186;78;26748;-26
2021/12/22 03:36:12;;;;;;;0.72;0.72;;;;;;;;;;1830809;78;26378;-31
2021/12/22 03:38:40;;;;;;;0.60;0.60;;;;;;;;;;1830923;78;26617;-30
2021/12/22 03:41:08;;;;;;;0.75;0.75;;;;;;;;;;1830836;78;26319;-27
2021/12/22 03:43:36;;;;;;;2.75;0.60;;;;;;;;;;1821266;78;26344;-27
2021/12/22 03:46:04;;;;;;;0.60;0.60;;;;;;;;;;1831058;78;26307;-28
2021/12/22 03:48:31;;;;;;;0.65;0.65;;;;;;;;;;1830631;78;26298;-26
2021/12/22 03:50:58;;;;;;;0.88;0.88;;;;;;;;;;1830767;78;26359;-25
2021/12/22 03:53:26;;;;;;;0.82;0.82;;;;;;;;;;1830815;78;26764;-24
2021/12/22 03:55:54;;;;;;;0.70;0.70;;;;;;;;;;1830600;78;26330;-25
2021/12/22 03:58:21;;;;;;;1.12;0.53;;;;;;;;;;1831290;78;26795;-27
2021/12/22 04:00:51;;;;;;;0.75;0.70;;;;;;;;;;1826041;78;26271;-25
2021/12/22 04:03:21;;;;;;;0.90;0.60;;;;;;;;;;1829921;78;26337;-26
2021/12/22 04:05:47;;;;;;;1.45;0.70;;;;;;;;;;1822524;78;26294;-24
2021/12/22 04:08:18;;;;;;;0.60;0.60;;;;;;;;;;1829419;78;26330;-27
2021/12/22 04:10:48;;;;;;;0.62;0.62;;;;;;;;;;1830763;78;26299;-26
2021/12/22 04:13:17;;;;;;;1.80;0.70;;;;;;;;;;1829829;78;26294;-29
2021/12/22 04:15:45;;;;;;;0.60;0.60;;;;;;;;;;1830429;78;26262;-27
2021/12/22 04:18:12;;;;;;;0.60;0.60;;;;;;;;;;1830355;78;26305;-27
2021/12/22 04:20:40;;;;;;;0.90;0.70;;;;;;;;;;1830789;78;26292;-30
2021/12/22 04:23:08;;;;;;;0.70;0.70;;;;;;;;;;1828941;77;26283;-29
2021/12/22 04:25:36;;;;;;;1.10;0.70;;;;;;;;;;1830766;78;26758;-26
2021/12/22 04:28:07;;;;;;;0.70;0.70;;;;;;;;;;1825259;78;26711;-29
2021/12/22 04:30:35;;;;;;;1.17;0.70;;;;;;;;;;1823008;78;26305;-27
2021/12/22 04:33:03;;;;;;;0.60;0.60;;;;;;;;;;1830859;78;26276;-29
2021/12/22 04:35:30;;;;;;;0.65;0.65;;;;;;;;;;1831013;78;26285;-25
2021/12/22 04:37:58;;;;;;;0.50;0.50;;;;;;;;;;1830330;78;26819;-26
2021/12/22 04:40:25;;;;;;;0.68;0.68;;;;;;;;;;1815912;78;26308;-24
2021/12/22 04:42:52;;;;;;;0.60;0.60;;;;;;;;;;1823198;78;26791;-24
2021/12/22 04:45:20;;;;;;;0.60;0.60;;;;;;;;;;1830154;78;26768;-26
2021/12/22 04:47:50;;;;;;;0.62;0.62;;;;;;;;;;1830944;78;26418;-25
2021/12/22 04:50:18;;;;;;;1.42;0.70;;;;;;;;;;1830379;78;26765;-27
2021/12/22 04:52:50;;;;;;;0.78;0.70;;;;;;;;;;1830841;78;26789;-24
2021/12/22 04:55:16;;;;;;;0.57;0.57;;;;;;;;;;1833042;78;26381;-26
2021/12/22 04:57:44;;;;;;;0.72;0.72;;;;;;;;;;1836977;78;26332;-26
2021/12/22 05:00:12;;;;;;;0.60;0.60;;;;;;;;;;1830882;78;26341;-27
2021/12/22 05:02:39;;;;;;;0.80;0.80;;;;;;;;;;1807551;78;26376;-25
2021/12/22 05:05:07;;;;;;;0.80;0.80;;;;;;;;;;1830432;78;26252;-29
2021/12/22 05:07:34;;;;;;;1.27;0.60;;;;;;;;;;1830946;78;25855;-30
2021/12/22 05:10:02;;;;;;;0.55;0.55;;;;;;;;;;1822147;78;27072;-29
2021/12/22 05:12:29;;;;;;;0.68;0.68;;;;;;;;;;1829048;78;26340;-26
2021/12/22 05:14:57;;;;;;;0.60;0.60;;;;;;;;;;1830219;77;26337;-26
2021/12/22 05:18:20;;;;;;;0.60;0.60;;;;;;;;;;1830893;78;26368;-24
2021/12/22 05:19:56;;;;;;;0.70;0.70;;;;;;;;;;1813159;78;26350;-25
2021/12/22 05:22:23;;;;;;;0.60;0.60;;;;;;;;;;1830724;78;26282;-24
2021/12/22 05:24:51;;;;;;;3.02;0.68;;;;;;;;;;1831080;78;26262;-27
2021/12/22 05:27:18;;;;;;;0.60;0.60;;;;;;;;;;1831618;78;26302;-24
2021/12/22 05:29:45;;;;;;;0.70;0.70;;;;;;;;;;1831206;78;26263;-27
2021/12/22 05:32:13;;;;;;;0.75;0.75;;;;;;;;;;1830987;78;26282;-28
2021/12/22 05:34:40;;;;;;;0.70;0.70;;;;;;;;;;1828778;78;26277;-24
2021/12/22 05:37:07;;;;;;;0.62;0.62;;;;;;;;;;1831043;78;26225;-26
2021/12/22 05:39:35;;;;;;;0.60;0.60;;;;;;;;;;1831101;78;26825;-27
2021/12/22 05:42:02;;;;;;;0.53;0.53;;;;;;;;;;1830848;78;26310;-26
2021/12/22 05:44:30;;;;;;;0.50;0.50;;;;;;;;;;1830672;78;26287;-25
2021/12/22 05:46:57;;;;;;;0.68;0.68;;;;;;;;;;1830934;78;26295;-27
2021/12/22 05:49:24;;;;;;;0.60;0.60;;;;;;;;;;1830822;78;26777;-25
2021/12/22 05:51:51;;;;;;;0.55;0.55;;;;;;;;;;1830948;78;26409;-30
2021/12/22 05:54:19;;;;;;;0.60;0.60;;;;;;;;;;1830140;78;26290;-30
2021/12/22 05:56:46;;;;;;;0.60;0.60;;;;;;;;;;1830912;78;26778;-26
2021/12/22 05:59:14;;;;;;;0.68;0.68;;;;;;;;;;1824658;78;26771;-25
2021/12/22 06:01:41;;;;;;;0.60;0.60;;;;;;;;;;1829633;78;26278;-26
2021/12/22 06:04:08;;;;;;;0.68;0.68;;;;;;;;;;1830775;78;26208;-26
2021/12/22 06:06:36;;;;;;;0.60;0.60;;;;;;;;;;1821947;78;26730;-25
2021/12/22 06:09:03;;;;;;;0.70;0.70;;;;;;;;;;1830457;78;26376;-24
2021/12/22 06:11:31;;;;;;;0.90;0.72;;;;;;;;;;1811851;78;26349;-23
2021/12/22 06:13:58;;;;;;;0.78;0.78;;;;;;;;;;1830103;77;26329;-24
2021/12/22 06:16:26;;;;;;;0.55;0.53;;;;;;;;;;1830294;78;26298;-25
2021/12/22 06:18:58;;;;;;;4.05;1.25;;;;;;;;;;1828547;78;26395;-26
2021/12/22 06:21:23;;;;;;;0.68;0.68;;;;;;;;;;1829113;78;26342;-26
2021/12/22 06:23:50;;;;;;;0.70;0.70;;;;;;;;;;1823167;77;26393;-33
2021/12/22 06:26:17;;;;;;;0.90;0.70;;;;;;;;;;1826304;78;26273;-27
2021/12/22 06:28:45;;;;;;;0.70;0.70;;;;;;;;;;1829915;77;26294;-27
2021/12/22 06:31:12;;;;;;;0.70;0.70;;;;;;;;;;1824570;78;26235;-25
2021/12/22 06:33:40;;;;;;;0.88;0.75;;;;;;;;;;1827212;78;26361;-24
2021/12/22 06:36:07;;;;;;;3.15;0.80;;;;;;;;;;1829121;78;27506;-27
2021/12/22 06:38:34;;;;;;;1.95;1.10;;;;;;;;;;1825117;78;26336;-23
2021/12/22 06:41:03;;;;;;;4.08;1.10;;;;;;;;;;1829837;78;26667;-26
2021/12/22 06:43:31;;;;;;;1.40;1.05;;;;;;;;;;1830584;78;27041;-25
2021/12/22 06:45:58;;;;;;;1.00;1.00;;;;;;;;;;1830584;78;26294;-24
2021/12/22 06:48:25;;;;;;;1.10;1.10;;;;;;;;;;1830190;78;26360;-24
2021/12/22 06:50:53;;;;;;;3.83;1.10;;;;;;;;;;1829819;78;26285;-29
2021/12/22 06:53:20;;;;;;;1.20;1.15;;;;;;;;;;1826517;78;26286;-23
2021/12/22 06:55:48;;;;;;;1.62;1.20;;;;;;;;;;1830305;78;26305;-23
2021/12/22 06:58:18;;;;;;;0.90;0.90;;;;;;;;;;1830259;78;26320;-26
2021/12/22 07:00:45;;;;;;;1.00;1.00;;;;;;;;;;1826229;78;26287;-25
2021/12/22 07:03:13;;;;;;;6.80;1.57;;;;;;;;;;1826309;78;26297;-26
2021/12/22 07:05:40;;;;;;;3.27;1.32;;;;;;;;;;1829886;78;26290;-27
2021/12/22 07:08:08;;;;;;;1.20;1.10;;;;;;;;;;1830429;77;26289;-28
2021/12/22 07:10:35;;;;;;;1.22;1.22;;;;;;;;;;1826869;77;26305;-26
2021/12/22 07:13:02;;;;;;;1.22;1.20;;;;;;;;;;1828758;77;26267;-26
2021/12/22 07:15:30;;;;;;;1.85;1.20;;;;;;;;;;1825360;77;26575;-26
2021/12/22 07:17:57;;;;;;;1.10;1.10;;;;;;;;;;1823097;77;26270;-28
2021/12/22 07:20:24;;;;;;;1.30;1.30;;;;;;;;;;1826631;77;26281;-24
2021/12/22 07:22:52;;;;;;;1.37;1.37;;;;;;;;;;1823751;77;26333;-24
2021/12/22 07:25:24;;;;;;;1.50;1.10;;;;;;;;;;1824039;77;26309;-26
2021/12/22 07:27:49;;;;;;;1.30;1.20;;;;;;;;;;1828300;77;26367;-24
2021/12/22 07:30:16;;;;;;;1.10;1.00;;;;;;;;;;1829324;77;26465;-25
2021/12/22 07:32:44;;;;;;;1.20;1.20;;;;;;;;;;1819865;78;26287;-24
2021/12/22 07:35:12;;;;;;;1.20;1.10;;;;;;;;;;1826728;77;26318;-30
2021/12/22 07:37:44;;;;;;;1.60;1.10;;;;;;;;;;1825394;77;26333;-24
2021/12/22 07:40:13;;;;;;;1.12;1.12;;;;;;;;;;1821074;77;26347;-49
2021/12/22 07:42:41;;;;;;;2.60;1.10;;;;;;;;;;1815642;78;26309;-53
2021/12/22 07:45:09;;;;;;;1.25;1.12;;;;;;;;;;1822605;78;26929;-45
2021/12/22 07:47:37;;;;;;;1.25;1.20;;;;;;;;;;1814579;78;26793;-44
2021/12/22 07:50:06;;;;;;;1.10;1.00;;;;;;;;;;1804557;78;26360;-47
2021/12/22 07:52:33;;;;;;;2.52;1.10;;;;;;;;;;1831747;78;26266;-46
2021/12/22 07:55:01;;;;;;;1.00;1.00;;;;;;;;;;1831010;78;26497;-45
2021/12/22 07:57:28;;;;;;;1.17;1.17;;;;;;;;;;1831951;78;25666;-45
2021/12/22 07:59:56;;;;;;;1.12;1.10;;;;;;;;;;1832605;77;26311;-46
2021/12/22 08:02:23;;;;;;;0.90;0.90;;;;;;;;;;1835558;77;26290;-46
2021/12/22 08:04:50;;;;;;;1.10;1.10;;;;;;;;;;1822561;77;26349;-51
2021/12/22 08:07:19;;;;;;;1.25;0.90;;;;;;;;;;1827161;77;26271;-54
2021/12/22 08:09:47;;;;;;;1.20;1.10;;;;;;;;;;1812616;77;29522;-52
2021/12/22 08:12:15;;;;;;;1.00;1.00;;;;;;;;;;1820356;77;26484;-48
2021/12/22 08:14:42;;;;;;;1.85;1.00;;;;;;;;;;1820480;77;26357;-48
2021/12/22 08:17:10;;;;;;;1.05;1.05;;;;;;;;;;1819785;77;26745;-47
2021/12/22 08:19:38;;;;;;;1.07;0.98;;;;;;;;;;1817626;77;25757;-49
2021/12/22 08:22:05;;;;;;;1.82;1.10;;;;;;;;;;1823034;77;26254;-47
2021/12/22 08:24:33;;;;;;;1.05;1.00;;;;;;;;;;1818173;77;26966;-46
2021/12/22 08:27:00;;;;;;;1.00;1.00;;;;;;;;;;1819694;77;26333;-45
2021/12/22 08:29:27;;;;;;;1.05;1.00;;;;;;;;;;1821717;77;26309;-42
2021/12/22 08:31:55;;;;;;;1.22;1.10;;;;;;;;;;1816955;78;26270;-43
2021/12/22 08:34:27;;;;;;;1.50;1.07;;;;;;;;;;1818354;77;26321;-46
2021/12/22 08:39:36;;;;;;;1.15;1.15;;;;;;;;;;1823670;77;26270;-47
2021/12/22 08:42:04;;;;;;;1.15;1.10;;;;;;;;;;1823454;77;26772;-47
2021/12/22 08:44:33;;;;;;;1.20;1.20;;;;;;;;;;1823215;77;26785;-44
2021/12/22 08:47:00;;;;;;;1.40;1.30;;;;;;;;;;1826429;77;26338;-46
2021/12/22 08:49:28;;;;;;;1.20;1.20;;;;;;;;;;1819303;77;26343;-46
2021/12/22 08:51:55;;;;;;;1.47;1.47;;;;;;;;;;1819062;77;26227;-43
2021/12/22 08:54:23;;;;;;;1.30;1.30;;;;;;;;;;1827455;77;26710;-50
2021/12/22 08:56:50;;;;;;;1.20;1.20;;;;;;;;;;1824050;77;26288;-52
2021/12/22 08:59:18;;;;;;;4.55;1.40;;;;;;;;;;1826891;77;26764;-47
2021/12/22 09:01:46;;;;;;;3.52;1.40;;;;;;;;;;1835597;76;25696;-52
2021/12/22 09:04:13;;;;;;;1.75;1.20;;;;;;;;;;1836734;76;26770;-55
2021/12/22 09:06:41;;;;;;;4.80;1.50;;;;;;;;;;1831771;76;26302;-52
2021/12/22 09:09:09;;;;;;;1.20;1.20;;;;;;;;;;1835856;76;26801;-50
2021/12/22 09:11:37;;;;;;;1.50;1.40;;;;;;;;;;1830777;76;26277;-50
2021/12/22 09:14:06;;;;;;;1.30;1.30;;;;;;;;;;1836346;76;26758;-49
2021/12/22 09:16:34;;;;;;;1.35;1.30;;;;;;;;;;1828403;76;26359;-51
2021/12/22 09:19:02;;;;;;;3.15;1.50;;;;;;;;;;1832310;76;25977;-56
2021/12/22 09:21:29;;;;;;;2.35;1.47;;;;;;;;;;1833144;76;26268;-51
2021/12/22 09:23:56;;;;;;;1.62;1.40;;;;;;;;;;1831801;78;26295;-50
2021/12/22 09:26:24;;;;;;;1.55;1.52;;;;;;;;;;1827066;76;26288;-49
2021/12/22 09:28:52;;;;;;;1.32;1.32;;;;;;;;;;1831654;76;26417;-53
2021/12/22 09:31:19;;;;;;;1.75;1.50;;;;;;;;;;1828501;76;26231;-54
2021/12/22 09:33:46;;;;;;;1.67;1.57;;;;;;;;;;1832015;76;26239;-52
2021/12/22 09:36:14;;;;;;;1.50;1.50;;;;;;;;;;1828513;77;26287;-55
2021/12/22 09:38:42;;;;;;;2.45;1.45;;;;;;;;;;1828745;78;26341;-58
2021/12/22 09:41:10;;;;;;;1.92;1.70;;;;;;;;;;1833076;77;26742;-51
2021/12/22 09:43:38;;;;;;;1.42;1.42;;;;;;;;;;1828020;78;26752;-55
2021/12/22 09:46:09;;;;;;;1.52;1.52;;;;;;;;;;1829924;77;26654;-57
2021/12/22 09:48:48;;;;;;;1.87;1.77;;;;;;;;;;1836937;78;26329;-52
2021/12/22 09:53:35;;;;;;;1.90;1.70;;;;;;;;;;1830942;77;26286;-40
2021/12/22 09:56:03;;;;;;;3.35;1.75;;;;;;;;;;1833697;76;26418;-43
2021/12/22 09:58:30;;;;;;;1.62;1.52;;;;;;;;;;1828805;76;26313;-47
2021/12/22 10:00:58;;;;;;;1.50;1.45;;;;;;;;;;1786891;78;26318;-46
2021/12/22 10:03:26;;;;;;;1.40;1.40;;;;;;;;;;1788622;79;26267;-45
2021/12/22 10:05:53;;;;;;;1.67;1.57;;;;;;;;;;1790915;79;26356;-47
2021/12/22 10:08:22;;;;;;;1.85;1.75;;;;;;;;;;1784391;79;26611;-51
2021/12/22 10:10:51;;;;;;;2.08;1.60;;;;;;;;;;1788150;79;25612;-49
2021/12/22 10:13:20;;;;;;;4.05;1.50;;;;;;;;;;1789809;78;26386;-50
2021/12/22 10:15:48;;;;;;;1.65;1.55;;;;;;;;;;1791379;79;26306;-50
2021/12/22 10:18:17;;;;;;;1.70;1.60;;;;;;;;;;1791291;78;26268;-48
2021/12/22 10:20:46;;;;;;;1.70;1.60;;;;;;;;;;1792944;78;27466;-50
2021/12/22 10:23:23;;;;;;;1.80;1.70;;;;;;;;;;1779859;79;28312;-37
2021/12/22 10:25:52;;;;;;;3.52;1.67;;;;;;;;;;1790262;79;26282;-41
2021/12/22 10:28:20;;;;;;;2.12;1.70;;;;;;;;;;1799182;78;25777;-42
2021/12/22 10:30:48;;;;;;;2.70;1.70;;;;;;;;;;1818465;77;28261;-45
2021/12/22 10:33:20;;;;;;;2.58;1.70;;;;;;;;;;1880020;75;26749;-50
2021/12/22 10:36:02;;;;;;;3.05;1.65;;;;;;;;;;1879716;75;26702;-55
2021/12/22 10:38:31;;;;;;;2.62;1.62;;;;;;;;;;1875333;75;26255;-42
2021/12/22 10:41:00;;;;;;;2.52;1.50;;;;;;;;;;1874633;75;26294;-41
2021/12/22 10:43:29;;;;;;;2.52;1.52;;;;;;;;;;1879366;75;26321;-43
2021/12/22 10:45:59;;;;;;;1.50;1.40;;;;;;;;;;1867858;75;26301;-40
2021/12/22 10:51:19;;;;;;;1.85;1.57;;;;;;;;;;1873535;75;26758;-41
2021/12/22 10:53:44;;;;;;;1.80;1.70;;;;;;;;;;1874099;75;26302;-43
2021/12/22 10:56:13;;;;;;;2.33;1.42;;;;;;;;;;1872999;75;26317;-40
2021/12/22 10:58:41;;;;;;;1.60;1.50;;;;;;;;;;1877733;75;26250;-40
2021/12/22 11:01:10;;;;;;;1.52;1.42;;;;;;;;;;1874743;76;26647;-39
2021/12/22 11:03:41;;;;;;;1.40;1.40;;;;;;;;;;1879396;75;26259;-42
2021/12/22 11:06:16;;;;;;;1.55;1.40;;;;;;;;;;1867454;75;26218;-41
2021/12/22 11:08:54;;;;;;;1.37;1.35;;;;;;;;;;1877414;75;26703;-44
2021/12/22 11:11:22;;;;;;;1.62;1.30;;;;;;;;;;1877294;75;26285;-54
2021/12/22 11:14:02;;;;;;;1.40;1.40;;;;;;;;;;1878148;75;26383;-45
2021/12/22 11:16:30;;;;;;;4.22;1.60;;;;;;;;;;1869934;75;26324;-41
2021/12/22 11:19:10;;;;;;;1.40;1.30;;;;;;;;;;1875102;75;26265;-48
2021/12/22 11:21:39;;;;;;;1.55;1.32;;;;;;;;;;1876825;75;26634;-45
2021/12/22 11:24:06;;;;;;;1.27;1.20;;;;;;;;;;1876714;75;26258;-53
2021/12/22 11:26:33;;;;;;;1.72;1.15;;;;;;;;;;1875037;75;26240;-47
2021/12/22 11:29:01;;;;;;;1.22;1.22;;;;;;;;;;1879279;75;26815;-46
2021/12/22 11:31:29;;;;;;;1.35;1.35;;;;;;;;;;1875047;75;26344;-43
2021/12/22 11:33:57;;;;;;;2.98;1.15;;;;;;;;;;1878795;76;26717;-45
2021/12/22 11:36:25;;;;;;;1.10;1.10;;;;;;;;;;1870449;75;26274;-43
2021/12/22 11:38:53;;;;;;;1.57;1.00;;;;;;;;;;1878821;75;26683;-51
2021/12/22 11:41:20;;;;;;;2.17;1.00;;;;;;;;;;1879122;75;26251;-46
2021/12/22 11:43:52;;;;;;;0.93;0.93;;;;;;;;;;1878951;75;26682;-45
2021/12/22 11:46:17;;;;;;;1.10;1.10;;;;;;;;;;1871695;75;26273;-51
2021/12/22 11:48:47;;;;;;;3.05;1.12;;;;;;;;;;1876764;75;26242;-44
2021/12/22 11:51:25;;;;;;;1.20;1.10;;;;;;;;;;1879208;75;26355;-56
2021/12/22 11:53:57;;;;;;;1.55;1.00;;;;;;;;;;1875981;75;26256;-40
2021/12/22 11:56:42;;;;;;;2.87;1.07;;;;;;;;;;1877401;75;26294;-49
2021/12/22 11:59:29;;;;;;;1.77;0.98;;;;;;;;;;1871475;75;26321;-41
2021/12/22 12:02:15;;;;;;;1.32;1.07;;;;;;;;;;1857938;76;26848;-46
2021/12/22 12:04:42;;;;;;;4.42;0.93;;;;;;;;;;1853972;77;26263;-40
2021/12/22 12:07:09;;;;;;;2.98;1.00;;;;;;;;;;1857804;76;26739;-40
2021/12/22 12:09:46;;;;;;;7.47;1.10;;;;;;;;;;1858648;76;26355;-41
2021/12/22 12:12:08;;;;;;;0.90;0.90;;;;;;;;;;1856278;76;26352;-40
2021/12/22 12:23:14;;;;;;;0.88;0.88;;;;;;;;;;1839207;77;26360;-38
2021/12/22 12:25:42;;;;;;;1.00;0.90;;;;;;;;;;1855157;77;26267;-37
2021/12/22 12:28:14;;;;;;;1.67;0.90;;;;;;;;;;1852709;76;26251;-37
2021/12/22 12:30:45;;;;;;;1.45;0.82;;;;;;;;;;1855562;76;26227;-38
2021/12/22 12:33:30;;;;;;;1.92;0.90;;;;;;;;;;1843042;76;26250;-37
2021/12/22 12:35:59;;;;;;;1.07;0.93;;;;;;;;;;1849188;77;26328;-40
2021/12/22 12:38:30;;;;;;;2.70;0.95;;;;;;;;;;1855067;77;26334;-42
2021/12/22 12:41:02;;;;;;;1.37;1.10;;;;;;;;;;1845852;77;26273;-41
2021/12/22 12:43:49;;;;;;;1.27;0.90;;;;;;;;;;1855914;77;26257;-40
2021/12/22 12:46:35;;;;;;;2.90;1.07;;;;;;;;;;1849826;77;26767;-42
2021/12/22 12:49:07;;;;;;;0.90;0.90;;;;;;;;;;1853292;77;26324;-38
2021/12/22 12:51:40;;;;;;;1.05;0.95;;;;;;;;;;1851356;77;26314;-47
2021/12/22 12:54:15;;;;;;;1.55;1.00;;;;;;;;;;1847599;77;26348;-41
2021/12/22 12:56:43;;;;;;;1.55;1.12;;;;;;;;;;1851182;77;26328;-42
2021/12/22 12:59:12;;;;;;;1.10;1.00;;;;;;;;;;1854117;77;26269;-44
2021/12/22 13:01:47;;;;;;;2.27;1.20;;;;;;;;;;1862141;75;26294;-29
2021/12/22 13:04:23;;;;;;;2.87;1.22;;;;;;;;;;1874545;75;26647;-31
2021/12/22 13:06:54;;;;;;;1.57;1.05;;;;;;;;;;1868814;76;25873;-28
2021/12/22 13:09:28;;;;;;;3.98;1.10;;;;;;;;;;1868792;76;26255;-32
2021/12/22 13:12:09;;;;;;;2.50;1.10;;;;;;;;;;1868910;76;26666;-32
2021/12/22 13:17:15;;;;;;;1.85;1.12;;;;;;;;;;1863997;76;26247;-29
2021/12/22 13:19:43;;;;;;;4.45;1.40;;;;;;;;;;1860016;76;26272;-31
2021/12/22 13:22:24;;;;;;;2.55;1.15;;;;;;;;;;1869694;75;26310;-30
2021/12/22 13:25:08;;;;;;;1.25;1.10;;;;;;;;;;1878762;76;26604;-32
2021/12/22 13:27:36;;;;;;;5.60;1.20;;;;;;;;;;1862071;76;26298;-32
2021/12/22 13:30:05;;;;;;;3.87;1.20;;;;;;;;;;1866177;76;26351;-29
2021/12/22 13:32:32;;;;;;;2.98;0.93;;;;;;;;;;1866744;76;26701;-29
2021/12/22 13:34:59;;;;;;;2.35;0.95;;;;;;;;;;1866732;76;26319;-29
2021/12/22 13:37:29;;;;;;;2.45;1.15;;;;;;;;;;1866860;75;26242;-30
2021/12/22 13:39:57;;;;;;;2.37;1.00;;;;;;;;;;1871495;76;26756;-32
2021/12/22 13:42:24;;;;;;;1.52;1.10;;;;;;;;;;1859894;76;26311;-29
2021/12/22 13:44:52;;;;;;;2.65;1.05;;;;;;;;;;1855429;76;26233;-30
2021/12/22 13:47:19;;;;;;;3.20;1.07;;;;;;;;;;1872553;76;26285;-29
2021/12/22 13:49:48;;;;;;;4.47;1.20;;;;;;;;;;1854747;76;26255;-29
2021/12/22 13:52:15;;;;;;;3.20;1.02;;;;;;;;;;1861682;76;26718;-31
2021/12/22 13:54:42;;;;;;;1.47;1.10;;;;;;;;;;1867598;76;26243;-29
2021/12/22 13:57:10;;;;;;;1.10;1.10;;;;;;;;;;1858450;75;26269;-30
2021/12/22 13:59:40;;;;;;;3.22;0.90;;;;;;;;;;1863310;75;26333;-30
2021/12/22 14:02:07;;;;;;;0.98;0.98;;;;;;;;;;1878248;76;26290;-30
2021/12/22 14:04:39;;;;;;;1.50;1.02;;;;;;;;;;1853546;75;26245;-29
2021/12/22 14:07:20;;;;;;;0.98;0.98;;;;;;;;;;1868749;76;26254;-28
2021/12/22 14:09:44;;;;;;;1.70;1.05;;;;;;;;;;1864906;76;26274;-29
2021/12/22 14:12:13;;;;;;;0.95;0.95;;;;;;;;;;1866633;76;26364;-29
2021/12/22 14:14:42;;;;;;;1.10;1.10;;;;;;;;;;1872946;76;26768;-28
2021/12/22 14:17:13;;;;;;;1.05;0.95;;;;;;;;;;1855803;76;26738;-29
2021/12/22 14:19:41;;;;;;;1.00;0.93;;;;;;;;;;1864896;76;26285;-29
2021/12/22 14:22:20;;;;;;;1.37;0.90;;;;;;;;;;1867480;76;26257;-29
2021/12/22 14:24:47;;;;;;;1.02;0.95;;;;;;;;;;1851327;76;26402;-31
2021/12/22 14:27:15;;;;;;;0.95;0.90;;;;;;;;;;1868309;76;26343;-30
2021/12/22 14:29:53;;;;;;;1.00;1.00;;;;;;;;;;1864041;76;26350;-28
2021/12/22 14:32:26;;;;;;;0.90;0.90;;;;;;;;;;1871789;75;26327;-30
2021/12/22 14:35:04;;;;;;;0.93;0.85;;;;;;;;;;1877029;76;26282;-32
2021/12/22 14:37:32;;;;;;;0.80;0.80;;;;;;;;;;1857764;76;26289;-31
2021/12/22 14:40:00;;;;;;;0.98;0.95;;;;;;;;;;1869451;76;26687;-29
2021/12/22 14:42:29;;;;;;;0.90;0.90;;;;;;;;;;1872983;76;26331;-30
2021/12/22 14:45:14;;;;;;;0.80;0.80;;;;;;;;;;1871141;75;26823;-29
2021/12/22 14:47:42;;;;;;;0.85;0.85;;;;;;;;;;1869894;75;27084;-28
2021/12/22 14:50:13;;;;;;;0.80;0.80;;;;;;;;;;1873449;76;26343;-28
2021/12/22 14:53:00;;;;;;;0.70;0.70;;;;;;;;;;1866349;76;26255;-28
2021/12/22 14:55:38;;;;;;;1.55;0.70;;;;;;;;;;1871801;75;26321;-29
2021/12/22 14:58:06;;;;;;;0.80;0.80;;;;;;;;;;1856575;76;26710;-28
2021/12/22 15:00:33;;;;;;;1.60;0.88;;;;;;;;;;1877730;76;26318;-29
2021/12/22 15:03:00;;;;;;;0.70;0.70;;;;;;;;;;1869082;76;26794;-29
2021/12/22 15:05:28;;;;;;;0.90;0.90;;;;;;;;;;1868516;76;26680;-30
2021/12/22 15:07:55;;;;;;;0.95;0.95;;;;;;;;;;1868216;76;26319;-28
2021/12/22 15:10:22;;;;;;;0.75;0.75;;;;;;;;;;1856425;76;26202;-30
2021/12/22 15:12:50;;;;;;;1.05;1.05;;;;;;;;;;1869369;76;26545;-29
2021/12/22 15:15:17;;;;;;;0.75;0.75;;;;;;;;;;1872514;76;26249;-31
2021/12/22 15:17:44;;;;;;;0.90;0.90;;;;;;;;;;1870533;75;26278;-30
2021/12/22 15:20:12;;;;;;;0.90;0.90;;;;;;;;;;1874450;75;26278;-29
2021/12/22 15:22:39;;;;;;;0.93;0.93;;;;;;;;;;1868981;76;26262;-29
2021/12/22 15:25:07;;;;;;;0.85;0.85;;;;;;;;;;1878773;75;26312;-29
2021/12/22 15:27:34;;;;;;;2.22;0.80;;;;;;;;;;1872964;76;26728;-29